sensor_id;sensor_type;location;lat;lon;timestamp;P1;durP1;ratioP1;P2;durP2;ratioP2
7179;SDS011;3631;42.152;24.756;2022-09-01T00:02:06;15.98;;;14.50;;
7179;SDS011;3631;42.152;24.756;2022-09-01T00:04:35;17.40;;;14.65;;
7179;SDS011;3631;42.152;24.756;2022-09-01T00:07:03;16.98;;;14.65;;
7179;SDS011;3631;42.152;24.756;2022-09-01T00:09:32;15.75;;;14.25;;
7179;SDS011;3631;42.152;24.756;2022-09-01T00:12:00;16.10;;;14.65;;
7179;SDS011;3631;42.152;24.756;2022-09-01T00:14:29;15.95;;;14.40;;
7179;SDS011;3631;42.152;24.756;2022-09-01T00:16:58;16.23;;;14.63;;
7179;SDS011;3631;42.152;24.756;2022-09-01T00:19:26;17.77;;;14.13;;
7179;SDS011;3631;42.152;24.756;2022-09-01T00:21:54;16.77;;;14.35;;
7179;SDS011;3631;42.152;24.756;2022-09-01T00:24:21;15.68;;;14.02;;
7179;SDS011;3631;42.152;24.756;2022-09-01T00:26:51;17.67;;;14.02;;
7179;SDS011;3631;42.152;24.756;2022-09-01T00:29:18;15.27;;;13.75;;
7179;SDS011;3631;42.152;24.756;2022-09-01T00:31:46;14.80;;;13.25;;
7179;SDS011;3631;42.152;24.756;2022-09-01T00:34:13;14.75;;;13.38;;
7179;SDS011;3631;42.152;24.756;2022-09-01T00:36:41;15.05;;;13.45;;
7179;SDS011;3631;42.152;24.756;2022-09-01T00:39:08;15.10;;;13.60;;
7179;SDS011;3631;42.152;24.756;2022-09-01T00:41:37;15.45;;;13.68;;
7179;SDS011;3631;42.152;24.756;2022-09-01T00:44:11;15.23;;;13.25;;
7179;SDS011;3631;42.152;24.756;2022-09-01T00:46:40;18.77;;;14.50;;
7179;SDS011;3631;42.152;24.756;2022-09-01T00:49:10;16.17;;;14.48;;
7179;SDS011;3631;42.152;24.756;2022-09-01T00:51:40;15.32;;;13.73;;
7179;SDS011;3631;42.152;24.756;2022-09-01T00:54:10;19.63;;;14.15;;
7179;SDS011;3631;42.152;24.756;2022-09-01T00:56:40;17.83;;;14.70;;
7179;SDS011;3631;42.152;24.756;2022-09-01T00:59:09;17.73;;;14.80;;
7179;SDS011;3631;42.152;24.756;2022-09-01T01:01:38;17.20;;;14.25;;
7179;SDS011;3631;42.152;24.756;2022-09-01T01:04:06;15.93;;;14.38;;
7179;SDS011;3631;42.152;24.756;2022-09-01T01:06:39;18.13;;;14.90;;
7179;SDS011;3631;42.152;24.756;2022-09-01T01:09:08;18.48;;;16.25;;
7179;SDS011;3631;42.152;24.756;2022-09-01T01:11:35;21.38;;;16.58;;
7179;SDS011;3631;42.152;24.756;2022-09-01T01:14:03;19.55;;;17.48;;
7179;SDS011;3631;42.152;24.756;2022-09-01T01:16:38;20.35;;;18.33;;
7179;SDS011;3631;42.152;24.756;2022-09-01T01:19:08;19.75;;;17.67;;
7179;SDS011;3631;42.152;24.756;2022-09-01T01:22:01;25.33;;;19.33;;
7179;SDS011;3631;42.152;24.756;2022-09-01T01:24:48;22.65;;;19.95;;
7179;SDS011;3631;42.152;24.756;2022-09-01T01:27:16;22.42;;;19.17;;
7179;SDS011;3631;42.152;24.756;2022-09-01T01:29:46;24.55;;;20.17;;
7179;SDS011;3631;42.152;24.756;2022-09-01T01:32:14;25.45;;;20.80;;
7179;SDS011;3631;42.152;24.756;2022-09-01T01:34:42;21.73;;;19.67;;
7179;SDS011;3631;42.152;24.756;2022-09-01T01:37:11;22.17;;;19.55;;
7179;SDS011;3631;42.152;24.756;2022-09-01T01:39:39;22.60;;;19.98;;
7179;SDS011;3631;42.152;24.756;2022-09-01T01:42:10;22.90;;;20.52;;
7179;SDS011;3631;42.152;24.756;2022-09-01T01:44:37;22.98;;;20.65;;
7179;SDS011;3631;42.152;24.756;2022-09-01T01:47:05;27.67;;;21.27;;
7179;SDS011;3631;42.152;24.756;2022-09-01T01:49:37;23.38;;;21.00;;
7179;SDS011;3631;42.152;24.756;2022-09-01T01:52:08;23.88;;;19.85;;
7179;SDS011;3631;42.152;24.756;2022-09-01T01:54:39;23.10;;;20.45;;
7179;SDS011;3631;42.152;24.756;2022-09-01T01:57:06;25.70;;;21.75;;
7179;SDS011;3631;42.152;24.756;2022-09-01T01:59:34;24.02;;;20.88;;
7179;SDS011;3631;42.152;24.756;2022-09-01T02:02:02;23.25;;;20.65;;
7179;SDS011;3631;42.152;24.756;2022-09-01T02:04:32;24.05;;;21.67;;
7179;SDS011;3631;42.152;24.756;2022-09-01T02:06:59;28.40;;;24.05;;
7179;SDS011;3631;42.152;24.756;2022-09-01T02:09:26;25.25;;;22.73;;
7179;SDS011;3631;42.152;24.756;2022-09-01T02:11:53;25.88;;;23.08;;
7179;SDS011;3631;42.152;24.756;2022-09-01T02:14:21;26.67;;;23.60;;
7179;SDS011;3631;42.152;24.756;2022-09-01T02:16:50;26.67;;;23.13;;
7179;SDS011;3631;42.152;24.756;2022-09-01T02:19:20;26.92;;;23.23;;
7179;SDS011;3631;42.152;24.756;2022-09-01T02:21:47;27.70;;;23.80;;
7179;SDS011;3631;42.152;24.756;2022-09-01T02:24:18;29.58;;;23.83;;
7179;SDS011;3631;42.152;24.756;2022-09-01T02:26:45;26.50;;;23.52;;
7179;SDS011;3631;42.152;24.756;2022-09-01T02:29:14;29.05;;;23.77;;
7179;SDS011;3631;42.152;24.756;2022-09-01T02:31:44;32.75;;;24.23;;
7179;SDS011;3631;42.152;24.756;2022-09-01T02:34:13;29.00;;;23.58;;
7179;SDS011;3631;42.152;24.756;2022-09-01T02:36:42;28.80;;;22.88;;
7179;SDS011;3631;42.152;24.756;2022-09-01T02:39:12;26.77;;;23.85;;
7179;SDS011;3631;42.152;24.756;2022-09-01T02:41:39;25.73;;;22.83;;
7179;SDS011;3631;42.152;24.756;2022-09-01T02:44:07;27.60;;;22.42;;
7179;SDS011;3631;42.152;24.756;2022-09-01T02:46:37;23.58;;;21.15;;
7179;SDS011;3631;42.152;24.756;2022-09-01T02:49:06;24.48;;;21.48;;
7179;SDS011;3631;42.152;24.756;2022-09-01T02:51:41;23.85;;;21.20;;
7179;SDS011;3631;42.152;24.756;2022-09-01T02:54:09;24.58;;;22.17;;
7179;SDS011;3631;42.152;24.756;2022-09-01T02:56:41;22.60;;;20.30;;
7179;SDS011;3631;42.152;24.756;2022-09-01T02:59:12;24.40;;;20.20;;
7179;SDS011;3631;42.152;24.756;2022-09-01T03:01:40;23.45;;;21.05;;
7179;SDS011;3631;42.152;24.756;2022-09-01T03:04:11;27.90;;;20.42;;
7179;SDS011;3631;42.152;24.756;2022-09-01T03:06:40;23.67;;;18.73;;
7179;SDS011;3631;42.152;24.756;2022-09-01T03:09:09;21.38;;;18.67;;
7179;SDS011;3631;42.152;24.756;2022-09-01T03:11:39;20.45;;;18.35;;
7179;SDS011;3631;42.152;24.756;2022-09-01T03:14:07;20.60;;;18.50;;
7179;SDS011;3631;42.152;24.756;2022-09-01T03:16:35;22.02;;;19.88;;
7179;SDS011;3631;42.152;24.756;2022-09-01T03:19:03;25.13;;;18.65;;
7179;SDS011;3631;42.152;24.756;2022-09-01T03:21:33;21.25;;;18.88;;
7179;SDS011;3631;42.152;24.756;2022-09-01T03:24:02;22.05;;;19.73;;
7179;SDS011;3631;42.152;24.756;2022-09-01T03:26:30;29.35;;;20.88;;
7179;SDS011;3631;42.152;24.756;2022-09-01T03:28:57;23.15;;;20.55;;
7179;SDS011;3631;42.152;24.756;2022-09-01T03:31:24;22.42;;;20.13;;
7179;SDS011;3631;42.152;24.756;2022-09-01T03:33:52;22.77;;;20.35;;
7179;SDS011;3631;42.152;24.756;2022-09-01T03:36:21;25.20;;;20.08;;
7179;SDS011;3631;42.152;24.756;2022-09-01T03:38:49;27.80;;;20.85;;
7179;SDS011;3631;42.152;24.756;2022-09-01T03:41:19;24.85;;;21.40;;
7179;SDS011;3631;42.152;24.756;2022-09-01T03:43:49;23.58;;;20.30;;
7179;SDS011;3631;42.152;24.756;2022-09-01T03:46:19;27.42;;;20.48;;
7179;SDS011;3631;42.152;24.756;2022-09-01T03:48:47;25.88;;;20.42;;
7179;SDS011;3631;42.152;24.756;2022-09-01T03:51:16;27.33;;;20.42;;
7179;SDS011;3631;42.152;24.756;2022-09-01T03:53:44;22.65;;;20.27;;
7179;SDS011;3631;42.152;24.756;2022-09-01T03:56:11;24.15;;;18.90;;
7179;SDS011;3631;42.152;24.756;2022-09-01T03:58:41;25.40;;;19.02;;
7179;SDS011;3631;42.152;24.756;2022-09-01T04:01:11;23.40;;;19.95;;
7179;SDS011;3631;42.152;24.756;2022-09-01T04:03:40;21.23;;;18.95;;
7179;SDS011;3631;42.152;24.756;2022-09-01T04:06:09;20.40;;;18.30;;
7179;SDS011;3631;42.152;24.756;2022-09-01T04:08:36;23.38;;;18.77;;
7179;SDS011;3631;42.152;24.756;2022-09-01T04:11:08;21.25;;;19.05;;
7179;SDS011;3631;42.152;24.756;2022-09-01T04:13:38;25.10;;;18.98;;
7179;SDS011;3631;42.152;24.756;2022-09-01T04:16:14;22.48;;;18.67;;
7179;SDS011;3631;42.152;24.756;2022-09-01T04:19:04;19.73;;;17.67;;
7179;SDS011;3631;42.152;24.756;2022-09-01T04:21:40;24.50;;;19.90;;
7179;SDS011;3631;42.152;24.756;2022-09-01T04:24:08;25.23;;;18.55;;
7179;SDS011;3631;42.152;24.756;2022-09-01T04:26:37;31.88;;;18.95;;
7179;SDS011;3631;42.152;24.756;2022-09-01T04:29:05;20.00;;;17.95;;
7179;SDS011;3631;42.152;24.756;2022-09-01T04:31:35;26.83;;;18.33;;
7179;SDS011;3631;42.152;24.756;2022-09-01T04:34:05;25.63;;;19.30;;
7179;SDS011;3631;42.152;24.756;2022-09-01T04:36:38;22.85;;;17.23;;
7179;SDS011;3631;42.152;24.756;2022-09-01T04:39:07;18.58;;;16.30;;
7179;SDS011;3631;42.152;24.756;2022-09-01T04:41:36;35.47;;;16.85;;
7179;SDS011;3631;42.152;24.756;2022-09-01T04:44:05;26.33;;;16.17;;
7179;SDS011;3631;42.152;24.756;2022-09-01T04:46:36;27.23;;;15.63;;
7179;SDS011;3631;42.152;24.756;2022-09-01T04:49:06;33.95;;;15.88;;
7179;SDS011;3631;42.152;24.756;2022-09-01T04:51:36;19.35;;;14.00;;
7179;SDS011;3631;42.152;24.756;2022-09-01T04:54:03;22.70;;;14.40;;
7179;SDS011;3631;42.152;24.756;2022-09-01T04:56:37;24.63;;;12.90;;
7179;SDS011;3631;42.152;24.756;2022-09-01T04:59:04;23.15;;;12.10;;
7179;SDS011;3631;42.152;24.756;2022-09-01T05:01:32;39.55;;;14.43;;
7179;SDS011;3631;42.152;24.756;2022-09-01T05:04:07;16.23;;;11.63;;
7179;SDS011;3631;42.152;24.756;2022-09-01T05:06:38;16.02;;;10.68;;
7179;SDS011;3631;42.152;24.756;2022-09-01T05:09:06;41.40;;;12.10;;
7179;SDS011;3631;42.152;24.756;2022-09-01T05:11:35;18.88;;;12.00;;
7179;SDS011;3631;42.152;24.756;2022-09-01T05:14:03;21.75;;;10.10;;
7179;SDS011;3631;42.152;24.756;2022-09-01T05:16:31;11.80;;;9.80;;
7179;SDS011;3631;42.152;24.756;2022-09-01T05:19:00;11.63;;;9.70;;
7179;SDS011;3631;42.152;24.756;2022-09-01T05:21:27;13.90;;;8.88;;
7179;SDS011;3631;42.152;24.756;2022-09-01T05:23:54;10.88;;;9.90;;
7179;SDS011;3631;42.152;24.756;2022-09-01T05:26:26;12.63;;;10.27;;
7179;SDS011;3631;42.152;24.756;2022-09-01T05:28:55;14.52;;;11.52;;
7179;SDS011;3631;42.152;24.756;2022-09-01T05:31:25;12.88;;;11.00;;
7179;SDS011;3631;42.152;24.756;2022-09-01T05:33:57;15.82;;;12.85;;
7179;SDS011;3631;42.152;24.756;2022-09-01T05:36:27;12.13;;;10.88;;
7179;SDS011;3631;42.152;24.756;2022-09-01T05:38:57;18.38;;;11.10;;
7179;SDS011;3631;42.152;24.756;2022-09-01T05:41:25;15.07;;;10.93;;
7179;SDS011;3631;42.152;24.756;2022-09-01T05:43:52;15.48;;;10.30;;
7179;SDS011;3631;42.152;24.756;2022-09-01T05:46:20;19.58;;;11.35;;
7179;SDS011;3631;42.152;24.756;2022-09-01T05:48:49;12.00;;;10.93;;
7179;SDS011;3631;42.152;24.756;2022-09-01T05:51:18;12.82;;;10.93;;
7179;SDS011;3631;42.152;24.756;2022-09-01T05:53:48;19.15;;;10.85;;
7179;SDS011;3631;42.152;24.756;2022-09-01T05:56:16;19.23;;;12.07;;
7179;SDS011;3631;42.152;24.756;2022-09-01T05:58:44;18.25;;;10.80;;
7179;SDS011;3631;42.152;24.756;2022-09-01T06:01:14;11.98;;;10.95;;
7179;SDS011;3631;42.152;24.756;2022-09-01T06:03:46;13.38;;;10.50;;
7179;SDS011;3631;42.152;24.756;2022-09-01T06:06:17;11.55;;;10.43;;
7179;SDS011;3631;42.152;24.756;2022-09-01T06:08:46;12.52;;;10.68;;
7179;SDS011;3631;42.152;24.756;2022-09-01T06:11:14;11.00;;;9.55;;
7179;SDS011;3631;42.152;24.756;2022-09-01T06:13:42;11.35;;;10.05;;
7179;SDS011;3631;42.152;24.756;2022-09-01T06:16:11;11.20;;;10.27;;
7179;SDS011;3631;42.152;24.756;2022-09-01T06:18:39;10.85;;;9.40;;
7179;SDS011;3631;42.152;24.756;2022-09-01T06:21:07;15.80;;;12.70;;
7179;SDS011;3631;42.152;24.756;2022-09-01T06:23:38;10.77;;;9.73;;
7179;SDS011;3631;42.152;24.756;2022-09-01T06:26:08;10.45;;;9.75;;
7179;SDS011;3631;42.152;24.756;2022-09-01T06:28:42;9.95;;;9.05;;
7179;SDS011;3631;42.152;24.756;2022-09-01T06:31:10;9.40;;;8.50;;
7179;SDS011;3631;42.152;24.756;2022-09-01T06:33:37;11.38;;;9.20;;
7179;SDS011;3631;42.152;24.756;2022-09-01T06:36:04;9.77;;;9.00;;
7179;SDS011;3631;42.152;24.756;2022-09-01T06:38:33;10.32;;;9.13;;
7179;SDS011;3631;42.152;24.756;2022-09-01T06:41:02;11.98;;;8.75;;
7179;SDS011;3631;42.152;24.756;2022-09-01T06:43:38;12.68;;;9.25;;
7179;SDS011;3631;42.152;24.756;2022-09-01T06:46:08;12.32;;;9.45;;
7179;SDS011;3631;42.152;24.756;2022-09-01T06:48:35;9.95;;;8.93;;
7179;SDS011;3631;42.152;24.756;2022-09-01T06:51:11;22.33;;;10.27;;
7179;SDS011;3631;42.152;24.756;2022-09-01T06:53:39;32.95;;;11.45;;
7179;SDS011;3631;42.152;24.756;2022-09-01T06:56:06;17.58;;;9.52;;
7179;SDS011;3631;42.152;24.756;2022-09-01T06:58:39;10.65;;;9.55;;
7179;SDS011;3631;42.152;24.756;2022-09-01T07:01:13;13.00;;;9.23;;
7179;SDS011;3631;42.152;24.756;2022-09-01T07:03:44;20.08;;;9.98;;
7179;SDS011;3631;42.152;24.756;2022-09-01T07:06:12;23.75;;;10.23;;
7179;SDS011;3631;42.152;24.756;2022-09-01T07:08:40;18.88;;;10.48;;
7179;SDS011;3631;42.152;24.756;2022-09-01T07:11:15;12.50;;;9.40;;
7179;SDS011;3631;42.152;24.756;2022-09-01T07:13:49;10.55;;;9.32;;
7179;SDS011;3631;42.152;24.756;2022-09-01T07:16:18;10.30;;;9.32;;
7179;SDS011;3631;42.152;24.756;2022-09-01T07:18:47;12.77;;;10.45;;
7179;SDS011;3631;42.152;24.756;2022-09-01T07:21:14;15.05;;;10.15;;
7179;SDS011;3631;42.152;24.756;2022-09-01T07:23:42;13.25;;;11.77;;
7179;SDS011;3631;42.152;24.756;2022-09-01T07:26:09;10.82;;;9.82;;
7179;SDS011;3631;42.152;24.756;2022-09-01T07:28:39;13.32;;;10.55;;
7179;SDS011;3631;42.152;24.756;2022-09-01T07:31:07;15.52;;;11.00;;
7179;SDS011;3631;42.152;24.756;2022-09-01T07:33:34;11.70;;;10.57;;
7179;SDS011;3631;42.152;24.756;2022-09-01T07:36:01;14.35;;;10.45;;
7179;SDS011;3631;42.152;24.756;2022-09-01T07:38:29;21.83;;;19.52;;
7179;SDS011;3631;42.152;24.756;2022-09-01T07:40:56;11.95;;;9.20;;
7179;SDS011;3631;42.152;24.756;2022-09-01T07:43:24;11.00;;;9.85;;
7179;SDS011;3631;42.152;24.756;2022-09-01T07:45:53;11.02;;;9.93;;
7179;SDS011;3631;42.152;24.756;2022-09-01T07:48:25;16.80;;;10.35;;
7179;SDS011;3631;42.152;24.756;2022-09-01T07:50:55;10.98;;;9.55;;
7179;SDS011;3631;42.152;24.756;2022-09-01T07:53:23;11.55;;;10.35;;
7179;SDS011;3631;42.152;24.756;2022-09-01T07:55:55;10.90;;;9.85;;
7179;SDS011;3631;42.152;24.756;2022-09-01T07:58:25;10.48;;;9.52;;
7179;SDS011;3631;42.152;24.756;2022-09-01T08:00:55;9.98;;;9.07;;
7179;SDS011;3631;42.152;24.756;2022-09-01T08:03:28;12.82;;;9.63;;
7179;SDS011;3631;42.152;24.756;2022-09-01T08:06:00;10.77;;;9.68;;
7179;SDS011;3631;42.152;24.756;2022-09-01T08:08:30;12.32;;;9.00;;
7179;SDS011;3631;42.152;24.756;2022-09-01T08:10:58;13.73;;;9.15;;
7179;SDS011;3631;42.152;24.756;2022-09-01T08:13:25;19.40;;;9.18;;
7179;SDS011;3631;42.152;24.756;2022-09-01T08:15:52;21.75;;;9.73;;
7179;SDS011;3631;42.152;24.756;2022-09-01T08:18:22;24.00;;;8.82;;
7179;SDS011;3631;42.152;24.756;2022-09-01T08:20:51;46.47;;;11.25;;
7179;SDS011;3631;42.152;24.756;2022-09-01T08:23:18;20.17;;;8.85;;
7179;SDS011;3631;42.152;24.756;2022-09-01T08:25:50;11.60;;;7.88;;
7179;SDS011;3631;42.152;24.756;2022-09-01T08:28:20;12.02;;;7.97;;
7179;SDS011;3631;42.152;24.756;2022-09-01T08:30:47;14.23;;;8.65;;
7179;SDS011;3631;42.152;24.756;2022-09-01T08:33:14;30.02;;;9.50;;
7179;SDS011;3631;42.152;24.756;2022-09-01T08:35:42;10.32;;;8.85;;
7179;SDS011;3631;42.152;24.756;2022-09-01T08:38:13;15.07;;;8.98;;
7179;SDS011;3631;42.152;24.756;2022-09-01T08:40:41;10.38;;;8.70;;
7179;SDS011;3631;42.152;24.756;2022-09-01T08:43:17;9.20;;;8.30;;
7179;SDS011;3631;42.152;24.756;2022-09-01T08:45:52;13.35;;;8.30;;
7179;SDS011;3631;42.152;24.756;2022-09-01T08:48:21;12.30;;;8.20;;
7179;SDS011;3631;42.152;24.756;2022-09-01T08:50:58;20.20;;;9.15;;
7179;SDS011;3631;42.152;24.756;2022-09-01T08:53:33;34.45;;;10.80;;
7179;SDS011;3631;42.152;24.756;2022-09-01T08:56:07;16.23;;;9.13;;
7179;SDS011;3631;42.152;24.756;2022-09-01T08:58:36;11.70;;;8.43;;
7179;SDS011;3631;42.152;24.756;2022-09-01T09:01:08;14.60;;;8.60;;
7179;SDS011;3631;42.152;24.756;2022-09-01T09:03:45;15.13;;;8.93;;
7179;SDS011;3631;42.152;24.756;2022-09-01T09:06:28;25.58;;;8.70;;
7179;SDS011;3631;42.152;24.756;2022-09-01T09:09:04;12.82;;;8.27;;
7179;SDS011;3631;42.152;24.756;2022-09-01T09:11:38;13.40;;;7.63;;
7179;SDS011;3631;42.152;24.756;2022-09-01T09:14:23;13.50;;;7.65;;
7179;SDS011;3631;42.152;24.756;2022-09-01T09:17:00;9.63;;;6.90;;
7179;SDS011;3631;42.152;24.756;2022-09-01T09:19:29;10.18;;;6.82;;
7179;SDS011;3631;42.152;24.756;2022-09-01T09:21:59;12.27;;;6.72;;
7179;SDS011;3631;42.152;24.756;2022-09-01T09:24:32;11.88;;;6.80;;
7179;SDS011;3631;42.152;24.756;2022-09-01T09:27:15;7.65;;;6.38;;
7179;SDS011;3631;42.152;24.756;2022-09-01T09:29:45;8.38;;;6.50;;
7179;SDS011;3631;42.152;24.756;2022-09-01T09:32:15;11.20;;;7.57;;
7179;SDS011;3631;42.152;24.756;2022-09-01T09:34:42;7.25;;;6.60;;
7179;SDS011;3631;42.152;24.756;2022-09-01T09:37:19;10.65;;;7.85;;
7179;SDS011;3631;42.152;24.756;2022-09-01T09:40:05;8.80;;;6.60;;
7179;SDS011;3631;42.152;24.756;2022-09-01T09:42:40;11.70;;;7.00;;
7179;SDS011;3631;42.152;24.756;2022-09-01T09:45:21;7.70;;;7.03;;
7179;SDS011;3631;42.152;24.756;2022-09-01T09:47:51;6.95;;;6.25;;
7179;SDS011;3631;42.152;24.756;2022-09-01T09:50:22;6.70;;;5.63;;
7179;SDS011;3631;42.152;24.756;2022-09-01T09:52:52;8.38;;;6.22;;
7179;SDS011;3631;42.152;24.756;2022-09-01T09:55:37;7.35;;;6.65;;
7179;SDS011;3631;42.152;24.756;2022-09-01T09:58:19;7.95;;;6.40;;
7179;SDS011;3631;42.152;24.756;2022-09-01T10:01:01;10.18;;;6.85;;
7179;SDS011;3631;42.152;24.756;2022-09-01T10:03:36;10.18;;;6.80;;
7179;SDS011;3631;42.152;24.756;2022-09-01T10:06:08;8.15;;;7.35;;
7179;SDS011;3631;42.152;24.756;2022-09-01T10:08:39;10.43;;;7.50;;
7179;SDS011;3631;42.152;24.756;2022-09-01T10:11:25;13.23;;;8.35;;
7179;SDS011;3631;42.152;24.756;2022-09-01T10:13:55;19.50;;;8.80;;
7179;SDS011;3631;42.152;24.756;2022-09-01T10:16:24;9.52;;;8.05;;
7179;SDS011;3631;42.152;24.756;2022-09-01T10:18:54;9.55;;;8.15;;
7179;SDS011;3631;42.152;24.756;2022-09-01T10:21:25;11.40;;;7.88;;
7179;SDS011;3631;42.152;24.756;2022-09-01T10:23:56;9.82;;;7.80;;
7179;SDS011;3631;42.152;24.756;2022-09-01T10:26:26;9.10;;;7.88;;
7179;SDS011;3631;42.152;24.756;2022-09-01T10:28:58;14.40;;;7.78;;
7179;SDS011;3631;42.152;24.756;2022-09-01T10:31:31;8.38;;;7.57;;
7179;SDS011;3631;42.152;24.756;2022-09-01T10:34:00;9.23;;;7.20;;
7179;SDS011;3631;42.152;24.756;2022-09-01T10:36:29;9.85;;;6.90;;
7179;SDS011;3631;42.152;24.756;2022-09-01T10:38:57;12.98;;;7.70;;
7179;SDS011;3631;42.152;24.756;2022-09-01T10:41:45;10.05;;;8.02;;
7179;SDS011;3631;42.152;24.756;2022-09-01T10:44:20;13.77;;;8.65;;
7179;SDS011;3631;42.152;24.756;2022-09-01T10:46:56;8.30;;;7.47;;
7179;SDS011;3631;42.152;24.756;2022-09-01T10:55:22;10.80;;;8.98;;
7179;SDS011;3631;42.152;24.756;2022-09-01T10:57:58;17.45;;;9.20;;
7179;SDS011;3631;42.152;24.756;2022-09-01T11:00:45;13.55;;;8.70;;
7179;SDS011;3631;42.152;24.756;2022-09-01T11:06:31;13.35;;;8.50;;
7179;SDS011;3631;42.152;24.756;2022-09-01T11:09:19;16.13;;;7.38;;
7179;SDS011;3631;42.152;24.756;2022-09-01T11:11:50;8.57;;;7.78;;
7179;SDS011;3631;42.152;24.756;2022-09-01T11:14:47;8.18;;;7.40;;
7179;SDS011;3631;42.152;24.756;2022-09-01T11:17:16;9.07;;;8.18;;
7179;SDS011;3631;42.152;24.756;2022-09-01T11:19:46;10.85;;;7.45;;
7179;SDS011;3631;42.152;24.756;2022-09-01T11:22:26;10.98;;;8.18;;
7179;SDS011;3631;42.152;24.756;2022-09-01T11:28:09;13.02;;;7.97;;
7179;SDS011;3631;42.152;24.756;2022-09-01T11:30:53;8.90;;;7.53;;
7179;SDS011;3631;42.152;24.756;2022-09-01T11:33:32;8.98;;;7.85;;
7179;SDS011;3631;42.152;24.756;2022-09-01T11:36:10;13.10;;;6.88;;
7179;SDS011;3631;42.152;24.756;2022-09-01T11:38:42;12.65;;;7.22;;
7179;SDS011;3631;42.152;24.756;2022-09-01T11:41:24;11.73;;;6.88;;
7179;SDS011;3631;42.152;24.756;2022-09-01T11:44:09;8.75;;;6.65;;
7179;SDS011;3631;42.152;24.756;2022-09-01T11:46:40;8.60;;;6.32;;
7179;SDS011;3631;42.152;24.756;2022-09-01T11:49:14;12.05;;;7.40;;
7179;SDS011;3631;42.152;24.756;2022-09-01T11:51:53;9.32;;;5.82;;
7179;SDS011;3631;42.152;24.756;2022-09-01T11:54:22;13.77;;;6.45;;
7179;SDS011;3631;42.152;24.756;2022-09-01T11:56:49;9.88;;;6.93;;
7179;SDS011;3631;42.152;24.756;2022-09-01T11:59:28;12.00;;;6.22;;
7179;SDS011;3631;42.152;24.756;2022-09-01T12:01:58;15.48;;;7.40;;
7179;SDS011;3631;42.152;24.756;2022-09-01T12:04:28;12.48;;;6.63;;
7179;SDS011;3631;42.152;24.756;2022-09-01T12:06:59;13.75;;;6.93;;
7179;SDS011;3631;42.152;24.756;2022-09-01T12:09:32;15.48;;;6.82;;
7179;SDS011;3631;42.152;24.756;2022-09-01T12:12:00;18.42;;;6.97;;
7179;SDS011;3631;42.152;24.756;2022-09-01T12:14:29;10.88;;;6.97;;
7179;SDS011;3631;42.152;24.756;2022-09-01T12:16:59;10.43;;;6.10;;
7179;SDS011;3631;42.152;24.756;2022-09-01T12:19:28;11.02;;;7.00;;
7179;SDS011;3631;42.152;24.756;2022-09-01T12:21:57;9.27;;;6.93;;
7179;SDS011;3631;42.152;24.756;2022-09-01T12:24:26;11.23;;;7.00;;
7179;SDS011;3631;42.152;24.756;2022-09-01T12:26:57;9.15;;;7.25;;
7179;SDS011;3631;42.152;24.756;2022-09-01T12:29:25;10.85;;;7.07;;
7179;SDS011;3631;42.152;24.756;2022-09-01T12:31:53;8.70;;;7.60;;
7179;SDS011;3631;42.152;24.756;2022-09-01T12:34:26;9.60;;;7.40;;
7179;SDS011;3631;42.152;24.756;2022-09-01T12:37:03;12.65;;;7.88;;
7179;SDS011;3631;42.152;24.756;2022-09-01T12:39:34;23.23;;;9.05;;
7179;SDS011;3631;42.152;24.756;2022-09-01T12:42:04;21.65;;;9.65;;
7179;SDS011;3631;42.152;24.756;2022-09-01T12:44:34;31.63;;;7.88;;
7179;SDS011;3631;42.152;24.756;2022-09-01T12:47:11;10.73;;;7.57;;
7179;SDS011;3631;42.152;24.756;2022-09-01T12:50:03;8.27;;;7.13;;
7179;SDS011;3631;42.152;24.756;2022-09-01T12:52:32;20.13;;;10.88;;
7179;SDS011;3631;42.152;24.756;2022-09-01T12:55:09;15.25;;;8.75;;
7179;SDS011;3631;42.152;24.756;2022-09-01T12:57:45;17.20;;;9.30;;
7179;SDS011;3631;42.152;24.756;2022-09-01T13:00:16;12.52;;;8.52;;
7179;SDS011;3631;42.152;24.756;2022-09-01T13:02:45;12.90;;;10.18;;
7179;SDS011;3631;42.152;24.756;2022-09-01T13:05:23;12.82;;;9.23;;
7179;SDS011;3631;42.152;24.756;2022-09-01T13:07:52;10.73;;;6.82;;
7179;SDS011;3631;42.152;24.756;2022-09-01T13:10:21;11.02;;;7.28;;
7179;SDS011;3631;42.152;24.756;2022-09-01T13:12:52;13.18;;;8.02;;
7179;SDS011;3631;42.152;24.756;2022-09-01T13:15:19;11.15;;;7.53;;
7179;SDS011;3631;42.152;24.756;2022-09-01T13:17:47;7.55;;;6.80;;
7179;SDS011;3631;42.152;24.756;2022-09-01T13:20:14;8.02;;;7.30;;
7179;SDS011;3631;42.152;24.756;2022-09-01T13:22:42;13.90;;;7.53;;
7179;SDS011;3631;42.152;24.756;2022-09-01T13:25:09;11.93;;;7.75;;
7179;SDS011;3631;42.152;24.756;2022-09-01T13:27:37;14.18;;;7.72;;
7179;SDS011;3631;42.152;24.756;2022-09-01T13:30:09;9.80;;;6.75;;
7179;SDS011;3631;42.152;24.756;2022-09-01T13:32:39;8.10;;;6.85;;
7179;SDS011;3631;42.152;24.756;2022-09-01T13:35:06;8.30;;;7.25;;
7179;SDS011;3631;42.152;24.756;2022-09-01T13:37:34;8.75;;;7.43;;
7179;SDS011;3631;42.152;24.756;2022-09-01T13:40:03;18.80;;;7.97;;
7179;SDS011;3631;42.152;24.756;2022-09-01T13:42:32;10.40;;;7.30;;
7179;SDS011;3631;42.152;24.756;2022-09-01T13:44:59;11.70;;;7.78;;
7179;SDS011;3631;42.152;24.756;2022-09-01T13:47:26;12.00;;;7.65;;
7179;SDS011;3631;42.152;24.756;2022-09-01T13:49:54;9.07;;;7.43;;
7179;SDS011;3631;42.152;24.756;2022-09-01T13:52:20;13.48;;;7.60;;
7179;SDS011;3631;42.152;24.756;2022-09-01T13:54:47;18.95;;;9.00;;
7179;SDS011;3631;42.152;24.756;2022-09-01T13:57:16;11.23;;;6.85;;
7179;SDS011;3631;42.152;24.756;2022-09-01T13:59:43;11.02;;;7.97;;
7179;SDS011;3631;42.152;24.756;2022-09-01T14:02:10;11.57;;;7.75;;
7179;SDS011;3631;42.152;24.756;2022-09-01T14:04:37;14.43;;;7.72;;
7179;SDS011;3631;42.152;24.756;2022-09-01T14:07:04;20.45;;;8.23;;
7179;SDS011;3631;42.152;24.756;2022-09-01T14:09:31;14.05;;;8.07;;
7179;SDS011;3631;42.152;24.756;2022-09-01T14:11:59;9.68;;;8.68;;
7179;SDS011;3631;42.152;24.756;2022-09-01T14:14:27;11.57;;;8.52;;
7179;SDS011;3631;42.152;24.756;2022-09-01T14:16:54;13.48;;;8.88;;
7179;SDS011;3631;42.152;24.756;2022-09-01T14:19:21;13.88;;;9.35;;
7179;SDS011;3631;42.152;24.756;2022-09-01T14:21:48;13.85;;;8.13;;
7179;SDS011;3631;42.152;24.756;2022-09-01T14:24:15;16.63;;;8.70;;
7179;SDS011;3631;42.152;24.756;2022-09-01T14:26:44;16.33;;;7.97;;
7179;SDS011;3631;42.152;24.756;2022-09-01T14:29:11;13.77;;;8.75;;
7179;SDS011;3631;42.152;24.756;2022-09-01T14:31:39;14.55;;;9.20;;
7179;SDS011;3631;42.152;24.756;2022-09-01T14:34:07;9.63;;;8.30;;
7179;SDS011;3631;42.152;24.756;2022-09-01T14:36:36;10.95;;;8.20;;
7179;SDS011;3631;42.152;24.756;2022-09-01T14:39:03;9.25;;;8.32;;
7179;SDS011;3631;42.152;24.756;2022-09-01T14:41:31;12.93;;;8.05;;
7179;SDS011;3631;42.152;24.756;2022-09-01T14:43:58;17.40;;;8.50;;
7179;SDS011;3631;42.152;24.756;2022-09-01T14:46:26;12.98;;;8.70;;
7179;SDS011;3631;42.152;24.756;2022-09-01T14:48:55;10.95;;;8.55;;
7179;SDS011;3631;42.152;24.756;2022-09-01T14:51:23;16.98;;;9.00;;
7179;SDS011;3631;42.152;24.756;2022-09-01T14:53:52;16.33;;;9.50;;
7179;SDS011;3631;42.152;24.756;2022-09-01T14:56:20;9.77;;;8.20;;
7179;SDS011;3631;42.152;24.756;2022-09-01T14:58:49;16.17;;;9.30;;
7179;SDS011;3631;42.152;24.756;2022-09-01T15:01:17;20.92;;;8.85;;
7179;SDS011;3631;42.152;24.756;2022-09-01T15:03:47;11.68;;;8.80;;
7179;SDS011;3631;42.152;24.756;2022-09-01T15:06:16;17.42;;;8.48;;
7179;SDS011;3631;42.152;24.756;2022-09-01T15:08:44;10.52;;;8.55;;
7179;SDS011;3631;42.152;24.756;2022-09-01T15:11:13;13.85;;;9.13;;
7179;SDS011;3631;42.152;24.756;2022-09-01T15:13:42;12.95;;;9.32;;
7179;SDS011;3631;42.152;24.756;2022-09-01T15:16:11;16.20;;;9.05;;